»·PEaware :: N881SL KBLI-KRLD

N881SL :: KBLI-KRLD

FLIGHT INFORMATION

Flight Status: Arrived
Operator: Privately registered:
United States
More flights under this callsign
Pilot: David D. (37029)
Aircraft: PIPER PA-31/31P NAVAJO CHIEFTAIN
(PA31)
More flights by this aircraft type
Origin: KBLI Bellingham Intl
United States
Destination: KRLD Richland
United States
More flights between these airports :: More routes between these airports
Route: CVV FEBUS V187 PSC
File this flight plan on PilotEdge
Remarks:
Altitude:
(Current/Filed)
11,000ft
Speed:
(Current/Filed)
185kts
Departed: 13-Feb-23 10:09 AM
Arrived: 13-Feb-23 11:36 AM
Distance/Time
Traveled:
199nm/1:27
Distance/Time
To Go:
Arrived

Flight Plot

Page will automatically refresh every two minutes.

Flight plan parsing failed; only flown route is shown


Map Options




Map Legend


Flown Route
Filed Route
Departure Airport
Arrival Airport
Navaid (VOR, NDB)
Fix

Horizontal Profiles

Position Reports

Time Latitude Longitude Heading Altitude Ground
Speed
13-Feb-23 09:40 48.793564 -122.532161 140 158ft 0kts
13-Feb-23 09:41 48.793564 -122.532161 140 158ft 0kts
13-Feb-23 09:42 48.793564 -122.532161 140 158ft 0kts
13-Feb-23 09:43 48.793564 -122.532161 140 158ft 0kts
13-Feb-23 09:44 48.793564 -122.532161 140 158ft 0kts
13-Feb-23 09:46 48.793564 -122.532161 140 158ft 0kts
13-Feb-23 09:47 48.793564 -122.532161 140 158ft 0kts
13-Feb-23 09:48 48.793564 -122.532161 140 158ft 0kts
13-Feb-23 09:49 48.793564 -122.532161 140 158ft 0kts
13-Feb-23 09:50 48.793564 -122.532161 140 158ft 0kts
13-Feb-23 09:51 48.793564 -122.532161 140 158ft 0kts
13-Feb-23 09:52 48.793564 -122.532161 140 158ft 0kts
13-Feb-23 09:53 48.793564 -122.532161 140 158ft 0kts
13-Feb-23 09:54 48.793564 -122.532161 140 158ft 0kts
13-Feb-23 09:55 48.793564 -122.532161 140 158ft 0kts
13-Feb-23 09:56 48.793564 -122.532161 140 158ft 0kts
13-Feb-23 09:57 48.793564 -122.532161 140 158ft 0kts
13-Feb-23 09:58 48.793564 -122.532161 140 158ft 0kts
13-Feb-23 09:59 48.793564 -122.532161 140 158ft 0kts
13-Feb-23 10:00 48.793564 -122.532161 140 158ft 0kts
13-Feb-23 10:01 48.793564 -122.532161 140 158ft 0kts
13-Feb-23 10:02 48.793278 -122.532463 290 157ft 10kts
13-Feb-23 10:03 48.794964 -122.535834 348 159ft 18kts
13-Feb-23 10:04 48.799269 -122.535859 359 161ft 10kts
13-Feb-23 10:05 48.801603 -122.535814 319 162ft 0kts
13-Feb-23 10:06 48.801603 -122.535814 319 162ft 0kts
13-Feb-23 10:07 48.801603 -122.535814 320 162ft 0kts
13-Feb-23 10:08 48.801386 -122.537525 178 165ft 10kts
13-Feb-23 10:08 48.783130 -122.537542 177 799ft 104kts
13-Feb-23 10:10 48.748525 -122.552442 193 1775ft 123kts
13-Feb-23 10:11 48.713308 -122.564859 192 2851ft 133kts
13-Feb-23 10:12 48.677433 -122.577185 192 3951ft 133kts
13-Feb-23 10:12 48.647316 -122.587530 192 4860ft 134kts
13-Feb-23 10:13 48.610732 -122.600055 192 5956ft 135kts
13-Feb-23 10:14 48.573848 -122.610073 160 7036ft 136kts
13-Feb-23 10:16 48.543942 -122.561514 129 8285ft 138kts
13-Feb-23 10:17 48.518828 -122.517734 130 9359ft 139kts
13-Feb-23 10:17 48.497502 -122.481040 130 10257ft 140kts
13-Feb-23 10:18 48.471704 -122.436773 130 11327ft 141kts
13-Feb-23 10:19 48.445683 -122.392209 130 12340ft 147kts
13-Feb-23 10:21 48.413318 -122.336814 131 13002ft 165kts
13-Feb-23 10:21 48.386344 -122.290880 131 12997ft 183kts
13-Feb-23 10:22 48.351789 -122.232022 131 12996ft 191kts
13-Feb-23 10:23 48.316434 -122.172043 131 12996ft 192kts
13-Feb-23 10:24 48.281082 -122.112117 131 12996ft 192kts
13-Feb-23 10:25 48.245699 -122.052265 131 12996ft 192kts
13-Feb-23 10:26 48.210157 -121.992284 131 12996ft 192kts
13-Feb-23 10:27 48.174528 -121.932290 131 12996ft 192kts
13-Feb-23 10:28 48.138935 -121.872493 131 12996ft 192kts
13-Feb-23 10:29 48.103385 -121.812902 131 12996ft 192kts
13-Feb-23 10:30 48.067744 -121.753293 131 12996ft 192kts
13-Feb-23 10:31 48.032221 -121.694015 131 12996ft 192kts
13-Feb-23 10:32 47.996531 -121.634594 131 12996ft 192kts
13-Feb-23 10:33 47.960800 -121.575237 131 12996ft 192kts
13-Feb-23 10:34 47.925040 -121.515965 131 12996ft 192kts
13-Feb-23 10:35 47.889356 -121.456952 131 12996ft 192kts
13-Feb-23 10:36 47.853581 -121.397924 131 12996ft 192kts
13-Feb-23 10:37 47.817786 -121.338992 132 12996ft 192kts
13-Feb-23 10:38 47.781857 -121.279965 132 12996ft 192kts
13-Feb-23 10:39 47.746063 -121.221296 132 12996ft 192kts
13-Feb-23 10:40 47.710026 -121.162358 132 12996ft 192kts
13-Feb-23 10:41 47.674206 -121.103905 132 12996ft 192kts
13-Feb-23 10:42 47.638122 -121.045153 132 12996ft 192kts
13-Feb-23 10:43 47.602205 -120.986800 132 12996ft 192kts
13-Feb-23 10:44 47.566204 -120.928441 132 12996ft 192kts
13-Feb-23 10:45 47.530084 -120.870015 132 12996ft 192kts
13-Feb-23 10:46 47.493997 -120.811772 132 12996ft 192kts
13-Feb-23 10:47 47.457828 -120.753525 132 12996ft 192kts
13-Feb-23 10:48 47.421622 -120.695346 132 12996ft 192kts
13-Feb-23 10:49 47.385422 -120.637304 132 12996ft 192kts
13-Feb-23 10:50 47.349157 -120.579284 132 12996ft 192kts
13-Feb-23 10:51 47.312878 -120.521367 132 12996ft 192kts
13-Feb-23 10:52 47.276470 -120.463374 132 12996ft 192kts
13-Feb-23 10:53 47.240143 -120.405634 132 12996ft 192kts
13-Feb-23 10:54 47.203770 -120.347947 133 12996ft 192kts
13-Feb-23 10:55 47.167344 -120.290305 133 12996ft 192kts
13-Feb-23 10:56 47.130892 -120.232745 133 12996ft 192kts
13-Feb-23 10:57 47.094303 -120.175075 132 12866ft 195kts
13-Feb-23 10:58 47.057245 -120.116432 133 12138ft 197kts
13-Feb-23 10:59 47.020189 -120.058157 133 11316ft 193kts
13-Feb-23 11:00 46.983821 -120.001349 133 10498ft 190kts
13-Feb-23 11:01 46.947917 -119.945277 133 9690ft 187kts
13-Feb-23 11:02 46.913390 -119.891537 133 8972ft 171kts
13-Feb-23 11:03 46.882047 -119.849119 139 8920ft 138kts
13-Feb-23 11:04 46.853760 -119.814613 140 8929ft 140kts
13-Feb-23 11:05 46.821653 -119.775644 140 8925ft 157kts
13-Feb-23 11:06 46.787947 -119.734880 140 8979ft 159kts
13-Feb-23 11:07 46.753510 -119.693295 140 8979ft 161kts
13-Feb-23 11:08 46.718613 -119.651306 140 8981ft 167kts
13-Feb-23 11:09 46.681587 -119.606772 140 8970ft 176kts
13-Feb-23 11:10 46.641925 -119.558992 140 8113ft 191kts
13-Feb-23 11:11 46.600870 -119.509794 140 7251ft 188kts
13-Feb-23 11:12 46.563108 -119.464822 140 7011ft 161kts
13-Feb-23 11:13 46.530059 -119.425210 140 7013ft 149kts
13-Feb-23 11:14 46.498068 -119.387117 140 7015ft 150kts
13-Feb-23 11:15 46.465557 -119.348399 140 6978ft 155kts
13-Feb-23 11:16 46.429858 -119.305818 140 6401ft 170kts
13-Feb-23 11:17 46.393163 -119.262342 140 5850ft 170kts
13-Feb-23 11:18 46.356629 -119.219093 140 5310ft 169kts
13-Feb-23 11:19 46.320398 -119.176349 141 4898ft 161kts
13-Feb-23 11:20 46.287882 -119.137922 140 4988ft 141kts
13-Feb-23 11:21 46.272306 -119.093566 64 4996ft 139kts
13-Feb-23 11:22 46.287315 -119.039702 87 4327ft 149kts
13-Feb-23 11:23 46.284437 -118.980233 95 3634ft 148kts
13-Feb-23 11:24 46.280157 -118.921815 95 3044ft 140kts
13-Feb-23 11:25 46.302148 -118.904219 316 3043ft 109kts
13-Feb-23 11:26 46.296592 -118.942432 231 3045ft 111kts
13-Feb-23 11:27 46.284466 -118.982225 274 3043ft 112kts
13-Feb-23 11:28 46.287713 -119.027866 276 2940ft 119kts
13-Feb-23 11:29 46.291095 -119.075484 275 2405ft 117kts
13-Feb-23 11:30 46.294187 -119.120232 275 2221ft 108kts
13-Feb-23 11:31 46.297126 -119.164093 275 2212ft 110kts
13-Feb-23 11:32 46.299924 -119.206142 275 1638ft 100kts
13-Feb-23 11:33 46.302614 -119.247207 275 1082ft 104kts
13-Feb-23 11:34 46.305138 -119.286315 277 577ft 92kts
13-Feb-23 11:35 46.306796 -119.310033 276 395ft 7kts
13-Feb-23 11:36 46.306194 -119.310823 91 397ft 0kts
13-Feb-23 11:37 46.305878 -119.305794 96 393ft 13kts
13-Feb-23 11:38 46.304662 -119.303878 207 393ft 13kts
13-Feb-23 11:39 46.302386 -119.302870 169 396ft 7kts
13-Feb-23 11:40 46.301363 -119.301694 17 398ft 2kts
13-Feb-23 11:41 46.301480 -119.301692 0 398ft 0kts
13-Feb-23 11:42 46.301480 -119.301692 0 398ft 0kts
13-Feb-23 11:43 46.301480 -119.301692 0 398ft 0kts
13-Feb-23 11:44 46.301480 -119.301692 0 398ft 0kts
13-Feb-23 11:45 46.301480 -119.301692 0 398ft 0kts
13-Feb-23 11:46 46.301480 -119.301692 0 398ft 0kts
13-Feb-23 11:47 46.301480 -119.301692 0 398ft 0kts
13-Feb-23 11:48 46.301480 -119.301692 0 398ft 0kts
13-Feb-23 11:49 46.301480 -119.301692 0 398ft 0kts

Navigation Log

Ident Type
Flight plan parsing failed, navigation log unavailable